Time;durP1;ratioP1;P1;durP2;ratioP2;P2;SDS_P1;SDS_P2;PMS_P1;PMS_P2;Temp;Humidity;BMP_temperature;BMP_pressure;BME280_temperature;BME280_humidity;BME280_pressure;Samples;Min_cycle;Max_cycle;Signal;HPM_P1;HPM_P2
2021/09/09 00:00:13;;;;;;;;;;;;;;;14.93;75.30;100942.91;2082023;28;19913;-69
2021/09/09 00:01:14;;;;;;;;;;;;;;;14.93;75.23;100939.41;2081548;28;20377;-69
2021/09/09 00:02:14;;;;;;;;;;;;;;;14.91;76.00;100936.88;2082118;28;20016;-69
2021/09/09 00:03:14;;;;;;;;;;;;;;;14.89;75.85;100933.47;2082021;28;19913;-68
2021/09/09 00:04:14;;;;;;;;;;;;;;;14.90;77.59;100935.19;2090257;28;19915;-69
2021/09/09 00:05:14;;;;;;;;;;;;;;;14.88;76.35;100937.06;2090948;28;20358;-69
2021/09/09 00:06:15;;;;;;;;;;;;;;;14.87;75.76;100930.13;2090977;28;19999;-69
2021/09/09 00:07:15;;;;;;;;;;;;;;;14.88;76.46;100926.53;2090928;28;20365;-67
2021/09/09 00:08:15;;;;;;;;;;;;;;;14.86;76.66;100917.91;2082024;28;19909;-68
2021/09/09 00:09:17;;;;;;;;;;;;;;;14.86;77.25;100927.56;2082013;28;19909;-68
2021/09/09 00:10:17;;;;;;;;;;;;;;;14.85;77.04;100918.84;2090912;28;19966;-69
2021/09/09 00:11:17;;;;;;;;;;;;;;;14.85;76.58;100918.00;2090843;28;19913;-69
2021/09/09 00:12:17;;;;;;;;;;;;;;;14.85;77.19;100925.88;2090910;28;19916;-69
2021/09/09 00:13:18;;;;;;;;;;;;;;;14.80;76.86;100918.28;2090771;28;19951;-69
2021/09/09 00:14:18;;;;;;;;;;;;;;;14.81;76.39;100914.69;2090198;28;19917;-69
2021/09/09 00:15:18;;;;;;;;;;;;;;;14.80;77.51;100923.53;2090148;28;19944;-69
2021/09/09 00:16:18;;;;;;;;;;;;;;;14.79;79.17;100916.59;2082146;28;19909;-68
2021/09/09 00:17:19;;;;;;;;;;;;;;;14.81;79.89;100914.69;2090655;28;19944;-69
2021/09/09 00:18:19;;;;;;;;;;;;;;;14.83;79.45;100917.25;2090775;28;19954;-68
2021/09/09 00:19:19;;;;;;;;;;;;;;;14.81;78.96;100909.44;2090831;28;19909;-69
2021/09/09 00:20:19;;;;;;;;;;;;;;;14.81;78.55;100917.31;2090818;28;19915;-69
2021/09/09 00:21:19;;;;;;;;;;;;;;;14.80;78.27;100907.75;2081922;28;20382;-69
2021/09/09 00:22:20;;;;;;;;;;;;;;;14.79;79.27;100908.72;2082019;28;19909;-68
2021/09/09 00:23:20;;;;;;;;;;;;;;;14.77;78.79;100914.06;2090780;28;19909;-69
2021/09/09 00:24:20;;;;;;;;;;;;;;;14.77;78.64;100907.94;2090693;28;19915;-69
2021/09/09 00:25:20;;;;;;;;;;;;;;;14.76;78.37;100908.84;2081803;28;19913;-69
2021/09/09 00:26:20;;;;;;;;;;;;;;;14.74;78.17;100897.56;2084711;28;19909;-68
2021/09/09 00:27:21;;;;;;;;;;;;;;;14.76;78.28;100906.22;2090028;28;20273;-68
2021/09/09 00:28:21;;;;;;;;;;;;;;;14.74;78.83;100903.69;2090208;28;19909;-68
2021/09/09 00:29:21;;;;;;;;;;;;;;;14.73;78.98;100895.91;2082040;28;19909;-69
2021/09/09 00:30:21;;;;;;;;;;;;;;;14.74;79.31;100900.19;2081877;28;20366;-68
2021/09/09 00:31:21;;;;;;;;;;;;;;;14.73;79.30;100901.16;2081795;28;20349;-69
2021/09/09 00:32:22;;;;;;;;;;;;;;;14.71;79.14;100892.53;2082074;28;19913;-69
2021/09/09 00:33:22;;;;;;;;;;;;;;;14.72;79.36;100895.06;2090323;28;19909;-68
2021/09/09 00:34:22;;;;;;;;;;;;;;;14.73;79.90;100891.50;2081931;28;19913;-68
2021/09/09 00:35:22;;;;;;;;;;;;;;;14.73;79.33;100895.91;2081887;28;20046;-69
2021/09/09 00:36:22;;;;;;;;;;;;;;;14.73;79.37;100898.53;2090618;28;20030;-68
2021/09/09 00:37:22;;;;;;;;;;;;;;;14.76;79.22;100906.22;2081678;28;19913;-68
2021/09/09 00:38:23;;;;;;;;;;;;;;;14.74;79.03;100897.56;2081932;28;19945;-68
2021/09/09 00:39:23;;;;;;;;;;;;;;;14.74;78.26;100902.84;2090546;28;20373;-68
2021/09/09 00:40:23;;;;;;;;;;;;;;;14.73;78.35;100902.00;2090738;28;19924;-69
2021/09/09 00:41:23;;;;;;;;;;;;;;;14.73;78.37;100895.91;2090727;28;19913;-68
2021/09/09 00:42:23;;;;;;;;;;;;;;;14.71;78.44;100890.72;2090746;28;19912;-69
2021/09/09 00:43:23;;;;;;;;;;;;;;;14.71;78.17;100897.78;2081783;28;20282;-67
2021/09/09 00:44:27;;;;;;;;;;;;;;;14.71;78.12;100892.53;2081873;28;19913;-68
2021/09/09 00:45:28;;;;;;;;;;;;;;;14.70;78.23;100894.31;2093471;28;20384;-68
2021/09/09 00:46:31;;;;;;;;;;;;;;;14.69;78.08;100890.00;2090765;28;19915;-69
2021/09/09 00:47:31;;;;;;;;;;;;;;;14.68;78.15;100889.13;2090756;28;19915;-69
2021/09/09 00:48:31;;;;;;;;;;;;;;;14.67;77.89;100890.06;2090602;28;19931;-68
2021/09/09 00:49:32;;;;;;;;;;;;;;;14.66;78.06;100885.78;2090550;28;19909;-68
2021/09/09 00:50:32;;;;;;;;;;;;;;;14.64;78.00;100887.63;2090449;28;19919;-69
2021/09/09 00:51:32;;;;;;;;;;;;;;;14.62;78.41;100888.66;2090649;28;19913;-69
2021/09/09 00:52:33;;;;;;;;;;;;;;;14.62;80.08;100894.75;2090642;28;19919;-69
2021/09/09 00:53:34;;;;;;;;;;;;;;;14.61;79.85;100887.81;2081666;28;19936;-69
2021/09/09 00:54:34;;;;;;;;;;;;;;;14.60;79.35;100891.38;2081772;28;20289;-68
2021/09/09 00:55:34;;;;;;;;;;;;;;;14.60;79.10;100888.75;2090593;28;19913;-68
2021/09/09 00:56:34;;;;;;;;;;;;;;;14.60;78.75;100880.88;2090564;28;19908;-68
2021/09/09 00:57:34;;;;;;;;;;;;;;;14.61;78.34;100882.53;2090554;28;19915;-68
2021/09/09 00:58:36;;;;;;;;;;;;;;;14.61;78.17;100881.72;2090593;28;20396;-69
2021/09/09 00:59:36;;;;;;;;;;;;;;;14.61;78.25;100881.72;2089870;28;19908;-69
2021/09/09 01:00:37;;;;;;;;;;;;;;;14.59;78.18;100884.44;2089958;28;19908;-68
2021/09/09 01:01:38;;;;;;;;;;;;;;;14.59;78.79;100887.06;2090506;28;19909;-68
2021/09/09 01:02:38;;;;;;;;;;;;;;;14.58;78.50;100882.75;2090564;28;20365;-69
2021/09/09 01:03:38;;;;;;;;;;;;;;;14.59;78.49;100884.44;2090603;28;19909;-69
2021/09/09 01:04:38;;;;;;;;;;;;;;;14.58;78.48;100874.03;2090556;28;20366;-69
2021/09/09 01:05:39;;;;;;;;;;;;;;;14.57;78.54;100883.66;2090582;28;20007;-71
2021/09/09 01:06:40;;;;;;;;;;;;;;;14.56;78.32;100874.09;2090574;28;19919;-68
2021/09/09 01:07:40;;;;;;;;;;;;;;;14.57;78.04;100874.97;2089881;28;19909;-68
2021/09/09 01:08:40;;;;;;;;;;;;;;;14.57;78.21;100870.53;2089979;28;19972;-69
2021/09/09 01:09:41;;;;;;;;;;;;;;;14.56;77.92;100876.72;2090482;28;19908;-68
2021/09/09 01:10:41;;;;;;;;;;;;;;;14.54;78.13;100870.72;2090461;28;20373;-69
2021/09/09 01:11:41;;;;;;;;;;;;;;;14.55;78.00;100872.44;2090511;28;19908;-69
2021/09/09 01:12:42;;;;;;;;;;;;;;;14.56;78.15;100868.84;2090579;28;19912;-68
2021/09/09 01:13:48;;;;;;;;;;;;;;;14.54;77.02;100871.56;2091402;28;19962;-68
2021/09/09 01:14:49;;;;;;;;;;;;;;;14.53;76.54;100872.50;2092290;28;19909;-69
2021/09/09 01:15:49;;;;;;;;;;;;;;;14.53;76.65;100869.03;2092237;28;19909;-69
2021/09/09 01:16:49;;;;;;;;;;;;;;;14.52;76.81;100868.19;2092207;28;19915;-68
2021/09/09 01:17:50;;;;;;;;;;;;;;;14.53;77.57;100867.25;2083258;28;19968;-69
2021/09/09 01:18:50;;;;;;;;;;;;;;;14.53;77.56;100869.03;2083451;28;19909;-68
2021/09/09 01:19:51;;;;;;;;;;;;;;;14.55;79.18;100864.53;2092249;28;19915;-68
2021/09/09 01:20:51;;;;;;;;;;;;;;;14.55;78.97;100865.38;2092273;28;19955;-68
2021/09/09 01:21:51;;;;;;;;;;;;;;;14.54;78.75;100866.31;2092190;28;19916;-69
2021/09/09 01:22:51;;;;;;;;;;;;;;;14.55;78.00;100867.16;2092290;28;19915;-69
2021/09/09 01:23:54;;;;;;;;;;;;;;;14.52;77.96;100856.84;2092140;28;20000;-69
2021/09/09 01:24:54;;;;;;;;;;;;;;;14.51;77.59;100869.13;2092271;28;20427;-69
2021/09/09 01:25:54;;;;;;;;;;;;;;;14.52;77.01;100859.47;2092088;28;19917;-69
2021/09/09 01:27:05;;;;;;;;;;;;;;;14.50;76.82;100853.44;2092225;28;19908;-69
2021/09/09 01:28:05;;;;;;;;;;;;;;;14.51;76.78;100849.91;2092137;28;19908;-68
2021/09/09 01:29:05;;;;;;;;;;;;;;;14.53;76.84;100856.75;2092029;28;19916;-68
2021/09/09 01:30:05;;;;;;;;;;;;;;;14.56;78.73;100853.09;2092046;28;19955;-68
2021/09/09 01:31:06;;;;;;;;;;;;;;;14.53;78.90;100848.88;2092063;28;19931;-69
2021/09/09 01:32:07;;;;;;;;;;;;;;;14.52;78.79;100851.59;2092112;28;19908;-69
2021/09/09 01:33:07;;;;;;;;;;;;;;;14.53;78.27;100848.03;2092132;28;20058;-70
2021/09/09 01:34:07;;;;;;;;;;;;;;;14.54;78.19;100849.69;2092068;28;19952;-69
2021/09/09 01:35:07;;;;;;;;;;;;;;;14.52;78.07;100846.34;2092164;28;19912;-69
2021/09/09 01:36:08;;;;;;;;;;;;;;;14.51;78.06;100839.41;2092099;28;19958;-69
2021/09/09 01:37:11;;;;;;;;;;;;;;;14.49;77.46;100841.25;2092115;28;19915;-69
2021/09/09 01:38:22;;;;;;;;;;;;;;;14.48;78.13;100844.84;2092046;28;19913;-69
2021/09/09 01:39:23;;;;;;;;;;;;;;;14.45;78.09;100853.75;2092058;28;20004;-68
2021/09/09 01:40:27;;;;;;;;;;;;;;;14.45;77.98;100847.63;2092113;28;20366;-68
2021/09/09 01:41:27;;;;;;;;;;;;;;;14.45;77.37;100845.00;2092090;28;19972;-68
2021/09/09 01:42:27;;;;;;;;;;;;;;;14.42;78.80;100846.03;2092037;28;19920;-68
2021/09/09 01:43:27;;;;;;;;;;;;;;;14.44;79.78;100849.41;2083029;28;19909;-68
2021/09/09 01:44:29;;;;;;;;;;;;;;;14.44;79.47;100843.31;2083176;28;20386;-68
2021/09/09 01:45:29;;;;;;;;;;;;;;;14.42;79.16;100844.28;2091414;28;20393;-69
2021/09/09 01:46:29;;;;;;;;;;;;;;;14.45;78.99;100850.25;2092032;28;20007;-69
2021/09/09 01:47:29;;;;;;;;;;;;;;;14.47;78.99;100840.53;2083098;28;19935;-68
2021/09/09 01:48:30;;;;;;;;;;;;;;;14.47;78.71;100848.41;2083151;28;20321;-69
2021/09/09 01:49:30;;;;;;;;;;;;;;;14.46;78.94;100846.69;2091932;28;19948;-68
2021/09/09 01:50:30;;;;;;;;;;;;;;;14.45;78.81;100845.00;2082952;28;19936;-68
2021/09/09 01:51:30;;;;;;;;;;;;;;;14.42;78.48;100835.53;2083209;28;20384;-68
2021/09/09 01:52:30;;;;;;;;;;;;;;;14.43;78.44;100842.47;2091898;28;19908;-68
2021/09/09 01:53:31;;;;;;;;;;;;;;;14.43;78.20;100845.09;2092065;28;19912;-69
2021/09/09 01:54:31;;;;;;;;;;;;;;;14.42;78.17;100843.41;2091841;28;20015;-68
2021/09/09 01:55:31;;;;;;;;;;;;;;;14.40;77.63;100848.75;2091947;28;20271;-69
2021/09/09 01:56:32;;;;;;;;;;;;;;;14.40;77.96;100846.13;2091903;28;19931;-68
2021/09/09 01:57:32;;;;;;;;;;;;;;;14.40;78.49;100842.66;2091966;28;19908;-68
2021/09/09 01:58:32;;;;;;;;;;;;;;;14.39;78.68;100844.44;2091877;28;20007;-68
2021/09/09 01:59:32;;;;;;;;;;;;;;;14.39;78.99;100841.81;2091909;28;19908;-68
2021/09/09 02:00:32;;;;;;;;;;;;;;;14.39;78.92;100844.44;2091861;28;19948;-68
2021/09/09 02:01:32;;;;;;;;;;;;;;;14.39;78.66;100847.06;2091208;28;19932;-68
2021/09/09 02:02:33;;;;;;;;;;;;;;;14.40;78.49;100846.13;2082905;28;19924;-69
2021/09/09 02:03:33;;;;;;;;;;;;;;;14.39;78.53;100836.56;2083043;28;19944;-68
2021/09/09 02:04:33;;;;;;;;;;;;;;;14.39;78.58;100841.81;2082873;28;19917;-68
2021/09/09 02:05:33;;;;;;;;;;;;;;;14.38;78.59;100844.53;2083128;28;19913;-68
2021/09/09 02:06:34;;;;;;;;;;;;;;;14.37;78.58;100841.03;2091793;28;19935;-68
2021/09/09 02:07:34;;;;;;;;;;;;;;;14.36;78.50;100842.00;2091180;28;19916;-68
2021/09/09 02:08:34;;;;;;;;;;;;;;;14.34;78.16;100843.84;2091300;28;19954;-69
2021/09/09 02:09:34;;;;;;;;;;;;;;;14.34;77.75;100843.84;2091794;28;20030;-68
2021/09/09 02:10:35;;;;;;;;;;;;;;;14.34;78.27;100837.78;2091773;28;20303;-68
2021/09/09 02:11:35;;;;;;;;;;;;;;;14.32;78.38;100845.72;2091872;28;19915;-69
2021/09/09 02:12:35;;;;;;;;;;;;;;;14.32;78.45;100848.34;2091799;28;20385;-68
2021/09/09 02:13:36;;;;;;;;;;;;;;;14.32;78.44;100843.09;2091723;28;20424;-68
2021/09/09 02:14:36;;;;;;;;;;;;;;;14.31;78.38;100843.19;2091784;28;19908;-69
2021/09/09 02:15:36;;;;;;;;;;;;;;;14.30;78.29;100847.59;2091829;28;20301;-69
2021/09/09 02:16:37;;;;;;;;;;;;;;;14.31;78.83;100843.19;2091759;28;20289;-67
2021/09/09 02:17:37;;;;;;;;;;;;;;;14.31;79.73;100846.69;2091652;28;19923;-68
2021/09/09 02:18:37;;;;;;;;;;;;;;;14.32;78.99;100848.34;2082844;28;19952;-68
2021/09/09 02:19:37;;;;;;;;;;;;;;;14.32;78.74;100850.97;2082936;28;19956;-68
2021/09/09 02:20:38;;;;;;;;;;;;;;;14.33;79.40;100850.03;2091721;28;19908;-68
2021/09/09 02:21:38;;;;;;;;;;;;;;;14.31;79.30;100849.31;2091802;28;19912;-68
2021/09/09 02:22:38;;;;;;;;;;;;;;;14.29;79.13;100851.16;2091782;28;19999;-68
2021/09/09 02:23:39;;;;;;;;;;;;;;;14.28;79.10;100854.72;2082851;28;19909;-68
2021/09/09 02:24:44;;;;;;;;;;;;;;;14.27;78.69;100850.41;2082366;28;19956;-67
2021/09/09 02:25:45;;;;;;;;;;;;;;;14.26;78.27;100851.31;2091741;28;20333;-69
2021/09/09 02:26:45;;;;;;;;;;;;;;;14.25;78.24;100850.50;2094395;28;19963;-68
2021/09/09 02:27:45;;;;;;;;;;;;;;;14.27;78.05;100859.13;2091710;28;19915;-68
2021/09/09 02:28:46;;;;;;;;;;;;;;;14.24;78.60;100851.41;2091724;28;19909;-68
2021/09/09 02:29:46;;;;;;;;;;;;;;;14.23;78.37;100846.28;2091618;28;19909;-68
2021/09/09 02:30:46;;;;;;;;;;;;;;;14.23;78.59;100846.28;2091563;28;19920;-69
2021/09/09 02:31:46;;;;;;;;;;;;;;;14.22;79.00;100855.06;2082806;28;19916;-69
2021/09/09 02:32:46;;;;;;;;;;;;;;;14.22;78.95;100849.81;2082877;28;19909;-69
2021/09/09 02:33:47;;;;;;;;;;;;;;;14.23;80.42;100847.09;2091593;28;19940;-69
2021/09/09 02:34:47;;;;;;;;;;;;;;;14.23;80.01;100860.22;2091671;28;20278;-68
2021/09/09 02:35:47;;;;;;;;;;;;;;;14.24;80.26;100847.97;2091640;28;19909;-69
2021/09/09 02:36:47;;;;;;;;;;;;;;;14.28;80.18;100852.09;2091594;28;20358;-68
2021/09/09 02:37:47;;;;;;;;;;;;;;;14.27;79.15;100853.03;2091584;28;19909;-68
2021/09/09 02:38:48;;;;;;;;;;;;;;;14.28;78.41;100849.47;2091519;28;20285;-69
2021/09/09 02:39:48;;;;;;;;;;;;;;;14.27;78.39;100848.63;2091718;28;19919;-69
2021/09/09 02:40:48;;;;;;;;;;;;;;;14.25;78.19;100849.63;2091578;28;19951;-69
2021/09/09 02:41:48;;;;;;;;;;;;;;;14.25;78.45;100849.63;2091588;28;19909;-69
2021/09/09 02:42:49;;;;;;;;;;;;;;;14.25;78.44;100844.41;2091644;28;19913;-69
2021/09/09 02:43:49;;;;;;;;;;;;;;;14.23;78.61;100844.47;2094325;28;20000;-69
2021/09/09 02:44:49;;;;;;;;;;;;;;;14.23;78.58;100841.03;2082622;28;19908;-69
2021/09/09 02:45:49;;;;;;;;;;;;;;;14.21;78.75;100840.25;2074508;28;19909;-69
2021/09/09 02:46:49;;;;;;;;;;;;;;;14.21;78.69;100842.88;2082588;28;19909;-69
2021/09/09 02:47:50;;;;;;;;;;;;;;;14.18;78.30;100843.06;2082796;28;19909;-69
2021/09/09 02:48:51;;;;;;;;;;;;;;;14.18;78.72;100843.91;2091475;28;19915;-68
2021/09/09 02:49:52;;;;;;;;;;;;;;;14.17;78.75;100831.72;2091555;28;19909;-67
2021/09/09 02:50:52;;;;;;;;;;;;;;;14.16;78.73;100833.50;2090881;28;20432;-69
2021/09/09 02:51:52;;;;;;;;;;;;;;;14.15;78.56;100842.31;2090887;28;19968;-68
2021/09/09 02:52:52;;;;;;;;;;;;;;;14.14;79.34;100835.34;2082579;28;19956;-68
2021/09/09 02:53:52;;;;;;;;;;;;;;;14.14;79.56;100837.97;2082739;28;19909;-68
2021/09/09 02:54:52;;;;;;;;;;;;;;;14.13;79.27;100836.28;2090799;28;19920;-69
2021/09/09 02:55:53;;;;;;;;;;;;;;;14.12;79.21;100839.00;2091469;28;19913;-70
2021/09/09 02:56:53;;;;;;;;;;;;;;;14.10;79.21;100831.22;2082597;28;19913;-69
2021/09/09 02:57:53;;;;;;;;;;;;;;;14.10;79.25;100836.47;2082714;28;19913;-69
2021/09/09 02:58:53;;;;;;;;;;;;;;;14.11;79.11;100837.31;2091336;28;19919;-69
2021/09/09 02:59:54;;;;;;;;;;;;;;;14.09;79.03;100834.78;2091479;28;20281;-68
2021/09/09 03:00:54;;;;;;;;;;;;;;;14.08;78.76;100838.34;2082603;28;19920;-69
2021/09/09 03:01:54;;;;;;;;;;;;;;;14.07;79.22;100828.78;2082690;28;19909;-68
2021/09/09 03:02:54;;;;;;;;;;;;;;;14.09;80.44;100833.97;2091397;28;19916;-69
2021/09/09 03:03:54;;;;;;;;;;;;;;;14.06;80.28;100829.69;2091373;28;19923;-69
2021/09/09 03:04:54;;;;;;;;;;;;;;;14.07;81.59;100830.56;2091435;28;19915;-69
2021/09/09 03:05:55;;;;;;;;;;;;;;;14.05;81.28;100828.03;2091378;28;20339;-68
2021/09/09 03:06:55;;;;;;;;;;;;;;;14.06;80.65;100821.84;2091421;28;19963;-68
2021/09/09 03:07:55;;;;;;;;;;;;;;;14.02;80.65;100823.81;2091396;28;20401;-68
2021/09/09 03:08:55;;;;;;;;;;;;;;;14.02;80.84;100822.94;2091396;28;19909;-69
2021/09/09 03:09:55;;;;;;;;;;;;;;;14.02;80.51;100823.81;2090605;28;20007;-69
2021/09/09 03:10:56;;;;;;;;;;;;;;;14.01;80.52;100821.25;2090849;28;19908;-69
2021/09/09 03:11:56;;;;;;;;;;;;;;;14.01;80.26;100826.50;2091406;28;19934;-68
2021/09/09 03:12:56;;;;;;;;;;;;;;;13.99;80.02;100829.22;2091420;28;19944;-69
2021/09/09 03:13:56;;;;;;;;;;;;;;;14.01;80.23;100826.50;2091439;28;20324;-69
2021/09/09 03:14:56;;;;;;;;;;;;;;;14.01;80.14;100821.25;2091373;28;19920;-69
2021/09/09 03:15:56;;;;;;;;;;;;;;;14.01;79.74;100826.50;2091313;28;19966;-68
2021/09/09 03:16:56;;;;;;;;;;;;;;;13.99;79.38;100823.97;2091213;28;19909;-68
2021/09/09 03:17:57;;;;;;;;;;;;;;;14.00;79.83;100824.81;2091315;28;19913;-70
2021/09/09 03:18:57;;;;;;;;;;;;;;;13.99;80.13;100818.72;2091296;28;20262;-69
2021/09/09 03:19:57;;;;;;;;;;;;;;;13.99;79.77;100817.91;2091244;28;20282;-69
2021/09/09 03:20:58;;;;;;;;;;;;;;;13.97;80.11;100817.97;2091294;28;19908;-69
2021/09/09 03:21:59;;;;;;;;;;;;;;;13.96;80.79;100820.69;2091321;28;19908;-69
2021/09/09 03:22:59;;;;;;;;;;;;;;;13.94;80.21;100810.28;2091244;28;19915;-68
2021/09/09 03:23:59;;;;;;;;;;;;;;;13.93;80.58;100819.09;2091238;28;19909;-69
2021/09/09 03:24:59;;;;;;;;;;;;;;;13.93;80.43;100807.75;2091268;28;19931;-69
2021/09/09 03:25:59;;;;;;;;;;;;;;;13.93;80.30;100808.59;2091290;28;19909;-69
2021/09/09 03:27:00;;;;;;;;;;;;;;;13.93;81.36;100810.38;2091209;28;19931;-69
2021/09/09 03:28:00;;;;;;;;;;;;;;;13.90;81.20;100809.59;2091123;28;19936;-67
2021/09/09 03:29:00;;;;;;;;;;;;;;;13.89;81.32;100802.66;2082275;28;19921;-69
2021/09/09 03:30:00;;;;;;;;;;;;;;;13.86;81.16;100797.59;2082302;28;19912;-69
2021/09/09 03:31:00;;;;;;;;;;;;;;;13.86;81.33;100799.38;2090488;28;19912;-67
2021/09/09 03:32:00;;;;;;;;;;;;;;;13.86;81.06;100797.59;2082285;28;19970;-68
2021/09/09 03:33:01;;;;;;;;;;;;;;;13.86;81.65;100799.38;2082408;28;19909;-69
2021/09/09 03:34:01;;;;;;;;;;;;;;;13.85;81.93;100803.78;2091122;28;19909;-69
2021/09/09 03:35:01;;;;;;;;;;;;;;;13.86;81.81;100804.63;2091220;28;19931;-69
2021/09/09 03:36:01;;;;;;;;;;;;;;;13.83;81.95;100797.78;2090399;28;19995;-69
2021/09/09 03:37:01;;;;;;;;;;;;;;;13.82;82.01;100796.06;2091001;28;19912;-68
2021/09/09 03:38:02;;;;;;;;;;;;;;;13.83;81.74;100805.66;2090448;28;19948;-67
2021/09/09 03:39:02;;;;;;;;;;;;;;;13.81;81.24;100798.78;2090470;28;19909;-69
2021/09/09 03:40:03;;;;;;;;;;;;;;;13.81;81.34;100810.13;2082252;28;19909;-69
2021/09/09 03:41:03;;;;;;;;;;;;;;;13.80;81.40;100810.22;2082178;28;19917;-69
2021/09/09 03:42:03;;;;;;;;;;;;;;;13.78;81.36;100816.41;2082287;28;19912;-68
2021/09/09 03:43:03;;;;;;;;;;;;;;;13.77;81.33;100813.84;2091119;28;20293;-69
2021/09/09 03:44:04;;;;;;;;;;;;;;;13.74;81.36;100799.16;2091162;28;19913;-69
2021/09/09 03:45:05;;;;;;;;;;;;;;;13.78;82.15;100810.28;2091193;28;19963;-68
2021/09/09 03:46:05;;;;;;;;;;;;;;;13.83;81.84;100812.66;2091134;28;20393;-69
2021/09/09 03:47:05;;;;;;;;;;;;;;;13.84;82.78;100803.84;2090515;28;19986;-69
2021/09/09 03:48:05;;;;;;;;;;;;;;;13.86;82.75;100808.06;2090535;28;19971;-69
2021/09/09 03:49:05;;;;;;;;;;;;;;;13.84;82.55;100807.34;2091094;28;19912;-68
2021/09/09 03:50:06;;;;;;;;;;;;;;;13.83;82.40;100802.19;2090953;28;19908;-69
2021/09/09 03:51:06;;;;;;;;;;;;;;;13.83;82.83;100812.66;2091053;28;19913;-69
2021/09/09 03:52:06;;;;;;;;;;;;;;;13.83;82.97;100813.53;2091016;28;19913;-68
2021/09/09 03:53:07;;;;;;;;;;;;;;;13.82;82.78;100819.69;2091108;28;19915;-68
2021/09/09 03:54:07;;;;;;;;;;;;;;;13.80;82.54;100818.94;2091034;28;19948;-69
2021/09/09 03:55:07;;;;;;;;;;;;;;;13.80;82.37;100816.31;2091003;28;19909;-69
2021/09/09 03:56:07;;;;;;;;;;;;;;;13.79;81.97;100811.97;2090997;28;20365;-68
2021/09/09 03:57:08;;;;;;;;;;;;;;;13.79;82.84;100817.22;2091053;28;19909;-68
2021/09/09 03:58:08;;;;;;;;;;;;;;;13.79;82.85;100819.84;2090995;28;19932;-68
2021/09/09 03:59:08;;;;;;;;;;;;;;;13.77;82.60;100819.97;2082048;28;19909;-69
2021/09/09 04:00:09;;;;;;;;;;;;;;;13.75;82.33;100815.72;2082165;28;19913;-69
2021/09/09 04:01:09;;;;;;;;;;;;;;;13.73;82.43;100817.59;2090930;28;19935;-68
2021/09/09 04:02:09;;;;;;;;;;;;;;;13.77;82.60;100819.09;2082073;28;19909;-68
2021/09/09 04:03:09;;;;;;;;;;;;;;;13.78;82.94;100820.78;2082116;28;19909;-68
2021/09/09 04:04:09;;;;;;;;;;;;;;;13.77;82.93;100819.97;2090769;28;19908;-68
2021/09/09 04:05:09;;;;;;;;;;;;;;;13.77;82.92;100819.09;2090890;28;19909;-68
2021/09/09 04:06:10;;;;;;;;;;;;;;;13.78;83.25;100820.78;2082086;28;19917;-68
2021/09/09 04:07:10;;;;;;;;;;;;;;;13.77;83.21;100825.22;2082057;28;19995;-68
2021/09/09 04:08:10;;;;;;;;;;;;;;;13.77;82.89;100824.34;2090300;28;19908;-69
2021/09/09 04:09:10;;;;;;;;;;;;;;;13.78;82.52;100815.53;2081950;28;19983;-68
2021/09/09 04:10:11;;;;;;;;;;;;;;;13.75;82.52;100821.81;2082049;28;19951;-68
2021/09/09 04:11:11;;;;;;;;;;;;;;;13.78;82.19;100826.03;2090868;28;19948;-68
2021/09/09 04:12:11;;;;;;;;;;;;;;;13.77;82.44;100819.09;2090181;28;19909;-68
2021/09/09 04:13:11;;;;;;;;;;;;;;;13.77;82.98;100825.22;2090328;28;20395;-69
2021/09/09 04:14:11;;;;;;;;;;;;;;;13.77;82.95;100825.22;2090852;28;19960;-70
2021/09/09 04:15:12;;;;;;;;;;;;;;;13.80;82.92;100824.19;2090781;28;19913;-68
2021/09/09 04:16:12;;;;;;;;;;;;;;;13.82;83.38;100821.47;2090850;28;19909;-69
2021/09/09 04:17:12;;;;;;;;;;;;;;;13.83;82.93;100824.03;2090709;28;19924;-68
2021/09/09 04:18:12;;;;;;;;;;;;;;;13.87;83.03;100822.06;2090817;28;19956;-68
2021/09/09 04:19:12;;;;;;;;;;;;;;;13.93;83.48;100820.84;2081945;28;19913;-68
2021/09/09 04:20:13;;;;;;;;;;;;;;;13.98;84.58;100816.19;2082011;28;19971;-68
2021/09/09 04:21:13;;;;;;;;;;;;;;;14.02;84.66;100818.56;2090714;28;19952;-68
2021/09/09 04:22:13;;;;;;;;;;;;;;;14.06;84.75;100815.75;2090856;28;19912;-69
2021/09/09 04:23:13;;;;;;;;;;;;;;;14.11;84.59;100813.72;2081856;28;19963;-68
2021/09/09 04:24:13;;;;;;;;;;;;;;;14.13;84.17;100812.69;2082033;28;19920;-68
2021/09/09 04:25:14;;;;;;;;;;;;;;;14.16;83.97;100804.63;2090726;28;20293;-69
2021/09/09 04:26:14;;;;;;;;;;;;;;;14.20;84.08;100809.72;2090683;28;19908;-69
2021/09/09 04:27:14;;;;;;;;;;;;;;;14.19;83.53;100810.66;2090829;28;19909;-68
2021/09/09 04:28:14;;;;;;;;;;;;;;;14.24;83.27;100808.59;2090728;28;20357;-69
2021/09/09 04:29:15;;;;;;;;;;;;;;;14.28;83.00;100808.34;2090676;28;19908;-68
2021/09/09 04:30:15;;;;;;;;;;;;;;;14.28;82.72;100804.84;2090724;28;19961;-68
2021/09/09 04:31:15;;;;;;;;;;;;;;;14.29;82.97;100809.16;2090770;28;19909;-68
2021/09/09 04:32:16;;;;;;;;;;;;;;;14.29;83.62;100809.16;2090701;28;19954;-68
2021/09/09 04:33:16;;;;;;;;;;;;;;;14.29;83.66;100807.38;2090774;28;19908;-68
2021/09/09 04:34:16;;;;;;;;;;;;;;;14.29;82.03;100809.16;2090715;28;19931;-69
2021/09/09 04:35:16;;;;;;;;;;;;;;;14.29;82.00;100803.91;2081836;28;19936;-69
2021/09/09 04:36:16;;;;;;;;;;;;;;;14.29;81.68;100804.75;2081973;28;19939;-69
2021/09/09 04:37:17;;;;;;;;;;;;;;;14.30;84.93;100805.59;2090670;28;19908;-69
2021/09/09 04:38:17;;;;;;;;;;;;;;;14.28;84.42;100802.22;2090721;28;20334;-69
2021/09/09 04:39:17;;;;;;;;;;;;;;;14.26;84.13;100790.97;2090664;28;19915;-69
2021/09/09 04:40:18;;;;;;;;;;;;;;;14.25;83.92;100791.91;2090659;28;19908;-68
2021/09/09 04:41:18;;;;;;;;;;;;;;;14.23;84.11;100784.13;2090630;28;19909;-68
2021/09/09 04:42:18;;;;;;;;;;;;;;;14.22;83.42;100782.44;2090675;28;20065;-69
2021/09/09 04:43:18;;;;;;;;;;;;;;;14.23;82.63;100785.91;2090655;28;19909;-69
2021/09/09 04:44:19;;;;;;;;;;;;;;;14.25;82.90;100787.50;2090614;28;19916;-69
2021/09/09 04:45:19;;;;;;;;;;;;;;;14.29;83.17;100788.16;2090645;28;19913;-69
2021/09/09 04:46:19;;;;;;;;;;;;;;;14.32;83.46;100777.47;2090652;28;19951;-69
2021/09/09 04:47:19;;;;;;;;;;;;;;;14.29;83.46;100778.50;2081585;28;20337;-69
2021/09/09 04:48:19;;;;;;;;;;;;;;;14.26;83.11;100788.34;2081821;28;19916;-69
2021/09/09 04:49:19;;;;;;;;;;;;;;;14.23;83.10;100778.88;2090566;28;19962;-69
2021/09/09 04:50:20;;;;;;;;;;;;;;;14.21;83.13;100779.91;2090530;28;20259;-70
2021/09/09 04:51:20;;;;;;;;;;;;;;;14.18;83.01;100786.19;2090647;28;19909;-69
2021/09/09 04:52:20;;;;;;;;;;;;;;;14.16;82.86;100778.38;2090555;28;19915;-69
2021/09/09 04:53:21;;;;;;;;;;;;;;;14.13;83.27;100783.81;2090512;28;19913;-69
2021/09/09 04:54:21;;;;;;;;;;;;;;;14.10;83.16;100783.97;2090610;28;19909;-68
2021/09/09 04:55:21;;;;;;;;;;;;;;;14.09;82.93;100789.34;2090663;28;20022;-68
2021/09/09 04:56:21;;;;;;;;;;;;;;;14.07;84.31;100785.97;2081688;28;20000;-69
2021/09/09 04:57:21;;;;;;;;;;;;;;;14.07;85.10;100791.19;2081747;28;19994;-68
2021/09/09 04:58:22;;;;;;;;;;;;;;;14.04;84.60;100789.59;2090463;28;20317;-69
2021/09/09 04:59:22;;;;;;;;;;;;;;;14.03;84.15;100793.16;2081577;28;19999;-68
2021/09/09 05:00:22;;;;;;;;;;;;;;;14.00;83.78;100788.09;2081751;28;19913;-68
2021/09/09 05:01:22;;;;;;;;;;;;;;;13.99;83.65;100799.53;2089843;28;19909;-68
2021/09/09 05:02:22;;;;;;;;;;;;;;;13.97;83.65;100788.25;2081657;28;19916;-69
2021/09/09 05:03:22;;;;;;;;;;;;;;;13.98;83.11;100789.94;2081713;28;19913;-69
2021/09/09 05:04:23;;;;;;;;;;;;;;;13.97;82.54;100789.13;2090445;28;19912;-69
2021/09/09 05:05:23;;;;;;;;;;;;;;;13.99;82.92;100791.66;2090491;28;20298;-69
2021/09/09 05:06:23;;;;;;;;;;;;;;;14.00;83.06;100795.97;2090659;28;19917;-69
2021/09/09 05:07:23;;;;;;;;;;;;;;;14.00;83.48;100782.84;2090524;28;19913;-69
2021/09/09 05:08:23;;;;;;;;;;;;;;;14.00;83.12;100788.09;2090591;28;19935;-68
2021/09/09 05:09:23;;;;;;;;;;;;;;;14.02;82.92;100781.81;2090637;28;19912;-68